Time;durP1;ratioP1;P1;durP2;ratioP2;P2;SDS_P1;SDS_P2;PMS_P1;PMS_P2;Temp;Humidity;BMP_temperature;BMP_pressure;BME280_temperature;BME280_humidity;BME280_pressure;Samples;Min_cycle;Max_cycle;Signal;HPM_P1;HPM_P2
2023/09/14 05:13:43;;;;;;;;;20.50;19.00;;;;;20.41;82.74;101634.84;5010294;28;46491;-70
2023/09/14 05:16:45;;;;;;;;;;;;;;;;;;;;;
2023/09/14 05:30:33;;;;;;;;;;;;;;;;;;;;;
2023/09/14 05:37:07;;;;;;;;;;;;;;;;;;;;;
2023/09/14 05:43:09;;;;;;;;;;;;;;;;;;;;;
2023/09/14 06:43:09;;;;;;;;;21.50;20.50;;;;;20.22;84.73;101664.88;1212526;22;46314;-69
2023/09/14 06:45:44;;;;;;;;;22.50;21.25;;;;;20.10;84.28;101638.50;5058484;28;45446;-69
2023/09/14 07:02:56;;;;;;;;;24.25;23.00;;;;;20.21;84.27;101651.41;4927755;22;46461;-83
2023/09/14 07:05:22;;;;;;;;;31.50;27.25;;;;;20.39;84.39;101680.16;5063372;28;45457;-83
2023/09/14 07:07:47;;;;;;;;;26.50;26.25;;;;;20.29;84.09;101658.13;5069517;28;45472;-83
2023/09/14 07:10:13;;;;;;;;;31.50;27.75;;;;;20.23;84.57;101649.50;5055396;28;45317;-83
2023/09/14 07:12:38;;;;;;;;;26.50;25.25;;;;;20.30;84.17;101659.03;5079216;28;46051;-83
2023/09/14 07:15:04;;;;;;;;;20.25;19.00;;;;;20.44;84.12;101678.06;5063286;28;45257;-83
2023/09/14 07:17:29;;;;;;;;;25.00;23.00;;;;;20.36;84.51;101664.06;5053400;28;46954;-83
2023/09/14 07:19:55;;;;;;;;;24.50;24.00;;;;;20.41;84.32;101669.22;5074566;28;45679;-83
2023/09/14 07:22:20;;;;;;;;;26.50;24.75;;;;;20.38;84.38;101670.28;5080213;28;45952;-83
2023/09/14 07:24:46;;;;;;;;;28.00;25.00;;;;;20.31;85.17;101653.53;5071215;28;45373;-83
2023/09/14 07:27:16;;;;;;;;;22.75;22.75;;;;;20.32;84.80;101662.50;5074677;28;46488;-83
2023/09/14 07:29:42;;;;;;;;;27.25;25.75;;;;;20.28;84.71;101645.56;5046031;28;45708;-83
2023/09/14 07:32:07;;;;;;;;;26.75;26.75;;;;;20.40;84.60;101671.06;5060413;28;47471;-83
2023/09/14 07:34:32;;;;;;;;;26.00;25.00;;;;;20.47;84.52;101680.59;5065152;28;45414;-83
2023/09/14 07:36:58;;;;;;;;;29.00;25.25;;;;;20.34;84.54;101653.31;5065582;28;45400;-83
2023/09/14 07:39:23;;;;;;;;;29.25;25.00;;;;;20.47;84.71;101675.16;5048744;28;45539;-83
2023/09/14 07:41:55;;;;;;;;;26.75;25.25;;;;;20.51;85.06;101674.03;5078497;28;51309;-83
2023/09/14 07:44:21;;;;;;;;;27.50;26.75;;;;;20.45;85.23;101662.66;5063635;28;46713;-83
2023/09/14 07:46:46;;;;;;;;;31.25;31.00;;;;;20.60;85.59;101683.44;5051929;28;45332;-83
2023/09/14 07:49:11;;;;;;;;;31.75;28.50;;;;;20.61;84.92;101684.31;5069742;28;45223;-83
2023/09/14 07:51:37;;;;;;;;;29.00;29.00;;;;;20.53;84.87;101668.47;5057486;28;48253;-83
2023/09/14 07:54:02;;;;;;;;;29.00;27.75;;;;;20.66;84.72;101677.66;5054023;28;45265;-83
2023/09/14 07:56:27;;;;;;;;;31.50;30.50;;;;;20.52;83.88;101664.03;5066311;28;45285;-83
2023/09/14 07:58:53;;;;;;;;;28.50;27.25;;;;;20.63;83.89;101677.88;5067477;28;45208;-83
2023/09/14 08:01:19;;;;;;;;;34.75;33.00;;;;;20.70;83.83;101681.09;5075422;28;45286;-83
2023/09/14 08:03:45;;;;;;;;;30.50;28.50;;;;;20.72;84.74;101690.88;5062018;28;45572;-83
2023/09/14 08:06:10;;;;;;;;;28.00;26.00;;;;;20.63;83.80;101667.03;5066030;28;45545;-83
2023/09/14 08:08:36;;;;;;;;;30.00;28.00;;;;;20.79;84.24;101695.94;5081606;28;45506;-83
2023/09/14 08:11:01;;;;;;;;;29.25;28.50;;;;;20.78;84.19;101686.94;5053037;28;47250;-83
2023/09/14 08:13:27;;;;;;;;;30.50;27.75;;;;;20.72;83.21;101671.88;5044066;28;45260;-83
2023/09/14 08:15:52;;;;;;;;;30.50;29.00;;;;;20.67;83.00;101660.44;5060136;28;45260;-83
2023/09/14 08:18:19;;;;;;;;;28.00;27.00;;;;;20.91;82.56;101704.22;5044017;28;45493;-83
2023/09/14 08:20:44;;;;;;;;;32.75;30.75;;;;;20.96;82.50;101703.91;5049461;28;47493;-83
2023/09/14 08:23:12;;;;;;;;;30.00;27.50;;;;;20.79;81.92;101677.81;5080200;28;45552;-83
2023/09/14 08:25:43;;;;;;;;;28.25;27.75;;;;;20.95;82.36;101699.47;5050907;28;45382;-83
2023/09/14 08:28:09;;;;;;;;;30.50;28.25;;;;;20.89;81.56;101698.00;5048038;28;45366;-83
2023/09/14 08:30:34;;;;;;;;;25.50;23.75;;;;;20.95;81.48;101704.91;5053141;28;47973;-83
2023/09/14 08:33:00;;;;;;;;;26.00;26.00;;;;;20.88;81.08;101690.84;5067037;28;45285;-83
2023/09/14 08:35:28;;;;;;;;;24.50;21.25;;;;;20.95;80.56;101696.75;5067023;28;50386;-83
2023/09/14 08:37:54;;;;;;;;;30.75;30.00;;;;;21.07;80.34;101714.13;5061625;28;46042;-82
2023/09/14 08:40:20;;;;;;;;;26.00;23.50;;;;;20.78;80.09;101661.63;5067797;28;45283;-82
2023/09/14 08:42:54;;;;;;;;;25.50;24.25;;;;;21.02;80.59;101698.13;5051006;28;45430;-83
2023/09/14 08:45:23;;;;;;;;;26.75;24.50;;;;;21.01;80.38;101700.94;5069021;28;45284;-83
2023/09/14 08:47:50;;;;;;;;;27.00;24.50;;;;;21.12;80.02;101716.53;5053388;28;45445;-83
2023/09/14 08:50:17;;;;;;;;;25.00;23.00;;;;;21.13;79.86;101715.59;5067277;28;45318;-82
2023/09/14 08:52:45;;;;;;;;;32.00;29.75;;;;;21.04;79.42;101709.75;5061482;28;45319;-82
2023/09/14 08:55:11;;;;;;;;;25.25;25.25;;;;;21.02;79.63;101699.97;5066808;28;45367;-82
2023/09/14 08:57:39;;;;;;;;;23.25;22.00;;;;;21.01;79.20;101699.06;5065507;28;45376;-83
2023/09/14 09:00:15;;;;;;;;;16.50;15.25;;;;;21.14;79.14;101717.34;5060148;28;47592;-82
2023/09/14 09:02:45;;;;;;;;;26.75;22.00;;;;;21.11;79.29;101715.69;5048139;28;45476;-80
2023/09/14 09:05:12;;;;;;;;;18.75;18.50;;;;;21.17;79.54;101722.59;5070516;28;46907;-80
2023/09/14 09:07:40;;;;;;;;;22.25;21.75;;;;;21.15;79.77;101714.53;5059187;28;45460;-80
2023/09/14 09:10:09;;;;;;;;;23.75;21.75;;;;;21.23;79.56;101719.47;5067283;28;46300;-80
2023/09/14 09:12:34;;;;;;;;;20.25;19.50;;;;;21.23;79.47;101716.75;5078310;28;45440;-80
2023/09/14 09:15:00;;;;;;;;;21.50;20.00;;;;;21.22;79.64;101704.16;5071482;28;45378;-80
2023/09/14 09:17:26;;;;;;;;;20.25;19.75;;;;;21.29;79.38;101711.81;5048318;28;45364;-80
2023/09/14 09:19:53;;;;;;;;;18.00;18.00;;;;;21.36;79.50;101709.59;5070743;28;45359;-80
2023/09/14 09:22:18;;;;;;;;;19.25;18.50;;;;;21.35;79.72;101699.72;5071074;28;45373;-80
2023/09/14 09:24:44;;;;;;;;;20.50;20.50;;;;;21.48;79.24;101717.97;5074300;28;45262;-80
2023/09/14 09:27:28;;;;;;;;;22.50;21.00;;;;;21.47;78.68;101708.97;5072277;28;45313;-80
2023/09/14 09:30:00;;;;;;;;;21.50;20.00;;;;;21.45;79.10;101700.88;5057789;28;47186;-80
2023/09/14 09:32:26;;;;;;;;;18.00;16.25;;;;;21.44;78.55;101700.97;5064909;28;45211;-80
2023/09/14 09:34:51;;;;;;;;;19.25;18.50;;;;;21.58;78.27;101720.00;5070296;28;45441;-80
2023/09/14 09:37:17;;;;;;;;;22.75;19.75;;;;;21.62;78.79;101712.56;5054465;28;45579;-80
2023/09/14 09:39:43;;;;;;;;;18.50;18.25;;;;;21.62;78.28;101716.16;5061867;28;47130;-80
2023/09/14 09:42:12;;;;;;;;;26.00;25.75;;;;;21.63;78.35;101715.19;5065221;28;45519;-80
2023/09/14 09:44:38;;;;;;;;;26.75;25.50;;;;;21.63;78.60;101711.56;5052016;28;45332;-80
2023/09/14 09:47:04;;;;;;;;;23.50;22.00;;;;;21.67;79.05;101706.81;5076350;28;45216;-80
2023/09/14 09:49:31;;;;;;;;;22.00;21.00;;;;;21.64;78.62;101707.91;5062664;28;45877;-80
2023/09/14 09:51:57;;;;;;;;;27.50;21.25;;;;;21.67;77.76;101701.38;5081991;28;45507;-80
2023/09/14 09:54:24;;;;;;;;;25.00;22.50;;;;;21.64;78.06;101691.59;5083926;28;45399;-80
2023/09/14 09:56:51;;;;;;;;;25.75;22.75;;;;;21.75;78.09;101704.47;5060224;28;45774;-80
2023/09/14 09:59:17;;;;;;;;;18.75;18.25;;;;;21.64;78.28;101684.31;5064712;28;47264;-80
2023/09/14 10:01:47;;;;;;;;;20.75;20.25;;;;;21.73;78.08;101696.41;5077174;28;45813;-80
2023/09/14 10:04:15;;;;;;;;;22.50;21.00;;;;;21.67;78.31;101680.53;5067499;28;45445;-80
2023/09/14 10:06:41;;;;;;;;;23.00;18.75;;;;;21.83;77.89;101704.84;5072449;28;45347;-80
2023/09/14 10:09:11;;;;;;;;;16.50;15.75;;;;;21.84;77.61;101699.31;5051152;28;47343;-80
2023/09/14 10:11:38;;;;;;;;;16.25;15.50;;;;;21.81;78.68;101688.66;5070505;28;45502;-84
2023/09/14 10:14:05;;;;;;;;;17.25;15.25;;;;;21.89;77.28;101700.88;5070869;28;45305;-85
2023/09/14 10:16:38;;;;;;;;;14.50;12.50;;;;;21.87;77.46;101695.56;5065470;27;45738;-85
2023/09/14 10:19:06;;;;;;;;;10.00;9.00;;;;;21.90;76.79;101691.75;5055500;28;48561;-85
2023/09/14 10:21:32;;;;;;;;;13.50;13.50;;;;;21.78;76.53;101671.66;5079669;27;45309;-85
2023/09/14 10:23:59;;;;;;;;;17.50;14.75;;;;;21.98;76.88;101700.28;5082321;27;45278;-78
2023/09/14 10:26:29;;;;;;;;;5.25;5.25;;;;;21.99;75.81;101702.88;5075542;28;45395;-89
2023/09/14 10:29:00;;;;;;;;;7.00;7.00;;;;;21.94;75.69;101685.16;5070410;28;45909;-88
2023/09/14 10:31:28;;;;;;;;;12.25;11.00;;;;;21.94;76.17;101677.00;5070117;27;45697;-88
2023/09/14 10:33:59;;;;;;;;;11.50;11.25;;;;;21.81;74.62;101647.03;5049110;28;45446;-88
2023/09/14 10:36:30;;;;;;;;;16.00;13.50;;;;;21.67;75.26;101609.00;5054252;28;45538;-89
2023/09/14 10:38:59;;;;;;;;;9.75;9.00;;;;;21.93;75.41;101646.19;5046012;28;47501;-88
2023/09/14 10:41:25;;;;;;;;;10.50;10.00;;;;;21.98;75.93;101644.03;5064050;28;45659;-89
2023/09/14 10:43:51;;;;;;;;;13.50;12.00;;;;;21.80;74.92;101604.50;5060680;28;45457;-89
2023/09/14 10:46:25;;;;;;;;;14.25;12.00;;;;;21.97;75.25;101614.28;5057423;27;45484;-89
2023/09/14 10:48:53;;;;;;;;;10.75;10.75;;;;;22.10;74.45;101630.63;5048793;28;47065;-89
2023/09/14 10:51:22;;;;;;;;;11.25;11.00;;;;;22.05;74.22;101616.47;5065452;28;45541;-88
2023/09/14 10:53:53;;;;;;;;;10.75;9.50;;;;;22.22;74.58;101637.97;5060989;28;45449;-89
2023/09/14 10:56:30;;;;;;;;;11.50;10.25;;;;;21.96;73.43;101594.34;5062597;28;45525;-89
2023/09/14 10:58:57;;;;;;;;;11.00;9.25;;;;;22.03;73.24;101586.66;5070618;28;45377;-88
2023/09/14 11:01:30;;;;;;;;;10.75;10.75;;;;;22.09;73.46;101593.56;5069191;28;45356;-89
2023/09/14 11:04:17;;;;;;;;;7.50;7.50;;;;;22.13;73.44;101593.22;5056163;28;45403;-89
2023/09/14 11:06:45;;;;;;;;;13.25;11.00;;;;;22.21;73.08;101595.44;5055538;28;45258;-88
2023/09/14 11:09:14;;;;;;;;;8.25;8.25;;;;;22.30;72.48;101603.00;5029907;28;46918;-89
2023/09/14 11:11:44;;;;;;;;;9.00;9.00;;;;;22.49;72.03;101632.53;5043665;28;45489;-88
2023/09/14 11:14:11;;;;;;;;;9.00;8.00;;;;;22.54;71.87;101624.06;5033286;28;45430;-88
2023/09/14 11:16:53;;;;;;;;;10.00;5.50;;;;;22.64;71.43;101627.88;5031054;28;45502;-88
2023/09/14 11:19:37;;;;;;;;;6.00;5.00;;;;;22.72;70.97;101635.47;5042962;28;46151;-87
2023/09/14 11:25:25;;;;;;;;;9.00;8.50;;;;;22.81;70.13;101634.00;5015384;28;45693;-87
2023/09/14 11:28:11;;;;;;;;;6.75;6.00;;;;;22.69;69.79;101617.53;4997206;28;45385;-87
2023/09/14 11:31:05;;;;;;;;;;;;;;;;;;;;;
2023/09/14 11:33:33;;;;;;;;;4.00;4.00;;;;;22.91;69.70;101632.38;5055198;28;72694;-86
2023/09/14 11:36:06;;;;;;;;;6.00;5.00;;;;;22.87;69.21;101626.28;5037744;28;45415;-86
2023/09/14 11:38:36;;;;;;;;;6.25;4.75;;;;;22.70;69.11;101591.19;5030508;28;45487;-87
2023/09/14 11:41:01;;;;;;;;;7.25;7.00;;;;;22.63;68.45;101568.13;5047275;28;46831;-86
2023/09/14 11:43:28;;;;;;;;;6.75;6.75;;;;;22.68;68.81;101571.38;5027725;28;45616;-87
2023/09/14 11:46:04;;;;;;;;;7.75;7.00;;;;;22.66;68.41;101563.31;5037911;28;45505;-86
2023/09/14 11:48:34;;;;;;;;;5.00;5.00;;;;;22.80;68.28;101577.81;5026794;28;45808;-86
2023/09/14 11:51:04;;;;;;;;;7.00;6.00;;;;;22.91;67.67;101581.50;5019097;28;46821;-87
2023/09/14 11:53:35;;;;;;;;;6.50;6.50;;;;;22.79;68.46;101565.16;5039006;28;45791;-86
2023/09/14 11:56:04;;;;;;;;;4.50;4.50;;;;;23.06;68.16;101605.91;5023545;28;45389;-87
2023/09/14 11:58:39;;;;;;;;;7.25;7.25;;;;;22.84;68.28;101563.88;5042624;28;45563;-87
2023/09/14 12:01:08;;;;;;;;;8.25;7.50;;;;;23.12;67.90;101613.63;5040703;28;48162;-87
2023/09/14 12:03:38;;;;;;;;;7.50;7.00;;;;;22.98;67.73;101581.94;5030067;28;45716;-86
2023/09/14 12:06:06;;;;;;;;;5.00;5.00;;;;;22.86;67.21;101567.34;5078481;28;45682;-86
2023/09/14 12:08:31;;;;;;;;;5.75;5.50;;;;;22.86;67.96;101550.16;5043342;28;45497;-87
2023/09/14 12:10:57;;;;;;;;;4.75;4.50;;;;;22.95;67.57;101571.25;5058942;28;48181;-87
2023/09/14 12:13:23;;;;;;;;;6.25;6.25;;;;;23.12;66.80;101595.47;5041609;28;45398;-87
2023/09/14 12:15:58;;;;;;;;;4.50;4.00;;;;;22.92;66.68;101555.13;5050467;28;45241;-87
2023/09/14 12:18:40;;;;;;;;;5.25;5.00;;;;;22.89;67.40;101549.94;5073416;28;45187;-86
2023/09/14 12:21:08;;;;;;;;;6.00;6.00;;;;;23.02;67.19;101569.84;5057432;28;45580;-87
2023/09/14 12:23:38;;;;;;;;;4.25;4.25;;;;;22.94;67.58;101548.63;5046488;27;45631;-86
2023/09/14 12:26:04;;;;;;;;;5.00;5.00;;;;;23.20;67.57;101583.16;5055926;28;45745;-87
2023/09/14 12:28:29;;;;;;;;;7.75;5.00;;;;;23.02;66.90;101544.47;5061566;27;45465;-87
2023/09/14 12:30:55;;;;;;;;;4.00;4.00;;;;;23.03;66.91;101527.16;5061079;27;46632;-86
2023/09/14 12:33:21;;;;;;;;;5.50;4.25;;;;;23.42;66.56;101594.22;5067743;28;44802;-80
2023/09/14 12:35:47;;;;;;;;;5.00;5.00;;;;;23.45;66.08;101595.84;5054514;28;45498;-86
2023/09/14 12:38:13;;;;;;;;;1.00;1.00;;;;;23.46;65.75;101587.56;5076831;28;45231;-86
2023/09/14 12:40:39;;;;;;;;;5.25;5.25;;;;;23.33;65.71;101562.19;5050411;28;47294;-86
2023/09/14 12:43:05;;;;;;;;;5.75;5.75;;;;;23.47;65.64;101577.53;5079245;27;45442;-86
2023/09/14 12:45:35;;;;;;;;;6.75;5.00;;;;;23.47;65.42;101572.06;5074082;27;45756;-86
2023/09/14 12:48:06;;;;;;;;;7.25;6.00;;;;;23.51;65.63;101570.03;5059583;28;45539;-89
2023/09/14 12:50:35;;;;;;;;;5.00;5.00;;;;;23.36;65.43;101536.59;5051292;28;47345;-89
2023/09/14 12:53:09;;;;;;;;;4.00;4.00;;;;;23.24;64.88;101522.91;5041937;28;45604;-88
2023/09/14 12:55:39;;;;;;;;;4.75;4.00;;;;;23.40;65.14;101546.28;5058334;28;45419;-88
2023/09/14 12:58:05;;;;;;;;;6.25;6.25;;;;;23.36;64.65;101539.31;5066969;28;45398;-88
2023/09/14 13:00:33;;;;;;;;;7.00;5.25;;;;;23.49;65.46;101554.63;5061971;28;47526;-88
2023/09/14 13:02:58;;;;;;;;;5.00;5.00;;;;;23.38;65.50;101529.19;5070323;28;45536;-89
2023/09/14 13:05:25;;;;;;;;;6.00;4.75;;;;;23.59;64.83;101554.84;5058595;28;45288;-89
2023/09/14 13:07:53;;;;;;;;;5.00;4.00;;;;;23.42;64.93;101522.50;5057621;28;45610;-88
2023/09/14 13:10:21;;;;;;;;;5.25;5.25;;;;;23.52;64.88;101530.88;5050626;28;47487;-88
2023/09/14 13:12:52;;;;;;;;;3.50;3.50;;;;;23.50;64.56;101509.19;5065197;27;45598;-88
2023/09/14 13:15:23;;;;;;;;;4.00;3.00;;;;;23.49;64.20;101512.91;5076764;28;45362;-88
2023/09/14 13:17:53;;;;;;;;;5.00;5.00;;;;;23.64;63.04;101533.56;5065617;28;45509;-88
2023/09/14 13:20:19;;;;;;;;;5.25;5.25;;;;;23.64;63.59;101521.78;5062332;28;45397;-88
2023/09/14 13:22:46;;;;;;;;;5.50;5.50;;;;;23.41;63.50;101466.28;5064556;28;45382;-87
2023/09/14 13:25:12;;;;;;;;;3.75;3.75;;;;;23.46;64.27;101470.41;5070348;28;45600;-88
2023/09/14 13:27:40;;;;;;;;;4.75;4.75;;;;;23.59;63.02;101480.34;5072192;28;45736;-88
2023/09/14 13:30:10;;;;;;;;;5.00;5.00;;;;;23.65;63.82;101488.94;5051616;28;47236;-88
2023/09/14 13:32:42;;;;;;;;;4.25;4.25;;;;;23.79;63.38;101501.53;5075229;28;45383;-87
2023/09/14 13:35:12;;;;;;;;;5.25;4.00;;;;;23.69;63.80;101470.53;5056669;28;45437;-88
2023/09/14 13:37:38;;;;;;;;;5.00;5.00;;;;;23.66;63.51;101463.44;5052149;28;45504;-88
2023/09/14 13:40:23;;;;;;;;;4.25;4.25;;;;;24.02;62.88;101513.44;5057779;28;48054;-88
2023/09/14 13:42:50;;;;;;;;;2.50;2.50;;;;;24.05;62.83;101502.28;5060248;28;45827;-87
2023/09/14 13:45:17;;;;;;;;;4.75;4.00;;;;;24.09;62.55;101511.09;5062007;28;45430;-87
2023/09/14 13:47:43;;;;;;;;;7.00;6.00;;;;;24.12;61.69;101507.25;5045556;28;45432;-87
2023/09/14 13:50:10;;;;;;;;;5.75;5.00;;;;;24.13;62.34;101498.09;5067177;28;45527;-87
2023/09/14 13:52:36;;;;;;;;;4.75;4.75;;;;;24.08;61.99;101484.81;5067191;28;45580;-87
2023/09/14 13:55:04;;;;;;;;;4.00;4.00;;;;;24.11;62.56;101481.00;5078932;27;45170;-87
2023/09/14 13:57:30;;;;;;;;;4.00;4.00;;;;;24.16;61.89;101476.91;5047748;28;45400;-87
2023/09/14 13:59:55;;;;;;;;;4.25;3.25;;;;;24.12;61.53;101471.81;5077079;28;45432;-87
2023/09/14 14:02:21;;;;;;;;;5.00;4.75;;;;;24.16;60.93;101462.41;5070702;28;45995;-87
2023/09/14 14:04:48;;;;;;;;;4.25;4.25;;;;;24.30;61.28;101489.44;5053359;28;45580;-87
2023/09/14 14:07:13;;;;;;;;;4.00;4.00;;;;;24.30;60.85;101481.25;5078218;28;45369;-87
2023/09/14 14:09:39;;;;;;;;;3.25;3.25;;;;;24.34;61.06;101493.69;5061887;28;45670;-87
2023/09/14 14:12:06;;;;;;;;;6.25;6.00;;;;;24.32;61.43;101472.97;5055760;28;45664;-86
2023/09/14 14:14:32;;;;;;;;;5.25;5.25;;;;;24.25;60.60;101469.00;5053547;28;45684;-87
2023/09/14 14:16:57;;;;;;;;;4.50;4.00;;;;;24.38;60.59;101483.41;5077150;28;45379;-86
2023/09/14 14:19:23;;;;;;;;;4.50;4.50;;;;;24.39;60.59;101479.66;5060905;28;47411;-87
2023/09/14 14:21:48;;;;;;;;;5.00;3.50;;;;;24.41;60.82;101486.75;5054951;28;46159;-88
2023/09/14 14:24:14;;;;;;;;;5.00;5.00;;;;;24.33;60.34;101461.94;5067305;27;45404;-87
2023/09/14 14:26:40;;;;;;;;;5.25;5.25;;;;;24.26;60.00;101440.69;5059845;28;45545;-86
2023/09/14 14:29:06;;;;;;;;;4.50;4.50;;;;;24.32;59.89;101451.13;5053640;28;47523;-86
2023/09/14 14:31:31;;;;;;;;;5.25;4.00;;;;;24.26;58.97;101432.50;5068446;28;45374;-85
2023/09/14 14:33:59;;;;;;;;;6.00;5.00;;;;;24.41;58.61;101459.47;5060101;28;45641;-87
2023/09/14 14:36:24;;;;;;;;;5.25;4.00;;;;;24.20;58.72;101414.78;5059026;28;45604;-87
2023/09/14 14:38:50;;;;;;;;;7.00;4.00;;;;;24.39;58.57;101439.63;5063160;28;47092;-87
2023/09/14 14:41:15;;;;;;;;;3.75;2.25;;;;;24.39;57.96;101433.28;5065379;27;44791;-87
2023/09/14 14:43:41;;;;;;;;;3.25;3.25;;;;;24.23;57.65;101401.78;5083291;28;45294;-87
2023/09/14 14:46:07;;;;;;;;;4.00;3.50;;;;;24.55;58.33;101450.19;5080680;28;45557;-87
2023/09/14 14:48:32;;;;;;;;;4.50;4.50;;;;;24.34;58.08;101409.13;5074256;28;45500;-87
2023/09/14 14:50:59;;;;;;;;;5.25;4.75;;;;;24.54;57.88;101432.06;5046551;28;45451;-87
2023/09/14 14:53:28;;;;;;;;;4.50;3.25;;;;;24.50;57.42;101416.91;5058902;28;45408;-87
2023/09/14 14:55:53;;;;;;;;;4.25;3.75;;;;;24.37;57.82;101381.59;5055050;28;45343;-87
2023/09/14 14:58:19;;;;;;;;;4.25;4.25;;;;;24.41;57.61;101382.19;5045245;28;47243;-87
2023/09/14 15:00:45;;;;;;;;;5.25;5.25;;;;;24.56;58.35;101404.69;5054618;28;45706;-89
2023/09/14 15:03:12;;;;;;;;;8.50;5.75;;;;;24.50;57.97;101399.69;5072649;28;45430;-88
2023/09/14 15:05:38;;;;;;;;;6.25;5.00;;;;;24.51;58.72;101395.97;5077637;28;45333;-88
2023/09/14 15:08:03;;;;;;;;;7.00;7.00;;;;;24.51;59.18;101387.78;5046935;28;46928;-88
2023/09/14 15:10:31;;;;;;;;;6.50;5.25;;;;;24.60;59.15;101411.63;5054141;28;45258;-87
2023/09/14 15:12:57;;;;;;;;;5.50;5.50;;;;;24.37;59.49;101375.25;5075861;27;45521;-88
2023/09/14 15:15:23;;;;;;;;;5.75;3.75;;;;;24.71;59.45;101433.44;5083975;28;45466;-87
2023/09/14 15:17:48;;;;;;;;;6.50;5.00;;;;;24.52;59.13;101393.09;5072597;28;45416;-84
2023/09/14 15:20:14;;;;;;;;;4.00;3.00;;;;;24.42;58.72;101373.00;5055630;28;45293;-87
2023/09/14 15:22:41;;;;;;;;;6.25;5.50;;;;;24.57;58.66;101398.22;5063198;28;45259;-87
2023/09/14 15:25:08;;;;;;;;;6.25;5.75;;;;;24.66;58.82;101412.97;5077832;28;45474;-86
2023/09/14 15:27:34;;;;;;;;;6.75;6.00;;;;;24.66;58.74;101407.50;5072059;28;45490;-87
2023/09/14 15:30:00;;;;;;;;;6.25;4.25;;;;;24.66;59.20;101405.66;5071881;28;46430;-87
2023/09/14 15:32:25;;;;;;;;;5.50;5.50;;;;;24.66;58.40;101411.13;5048631;28;45386;-86
2023/09/14 15:34:51;;;;;;;;;5.00;5.00;;;;;24.63;58.87;101405.06;5047839;28;45337;-86
2023/09/14 15:37:16;;;;;;;;;5.00;5.00;;;;;24.45;58.81;101370.03;5051817;28;47132;-86
2023/09/14 15:39:42;;;;;;;;;7.00;7.00;;;;;24.45;58.35;101375.50;5082819;28;45359;-86
2023/09/14 15:42:07;;;;;;;;;6.00;4.50;;;;;24.65;58.90;101411.25;5076960;27;46014;-86
2023/09/14 15:44:38;;;;;;;;;6.50;6.50;;;;;24.60;59.11;101407.00;5067672;28;45454;-86
2023/09/14 15:47:06;;;;;;;;;8.75;5.50;;;;;24.54;59.05;101392.97;5048002;28;47124;-86
2023/09/14 15:49:31;;;;;;;;;5.50;5.50;;;;;24.41;59.01;101365.81;5068062;28;45534;-86
2023/09/14 15:51:57;;;;;;;;;4.75;4.75;;;;;24.53;59.68;101378.47;5058081;28;45307;-86
2023/09/14 15:54:22;;;;;;;;;5.50;4.00;;;;;24.42;59.00;101360.25;5062739;28;45890;-86
2023/09/14 15:56:48;;;;;;;;;5.00;5.00;;;;;24.58;59.59;101389.03;5061232;28;47213;-86
2023/09/14 15:59:13;;;;;;;;;6.25;5.25;;;;;24.47;59.18;101373.50;5056456;28;45366;-86
2023/09/14 16:01:39;;;;;;;;;6.50;6.00;;;;;24.55;59.42;101383.84;5067959;28;45471;-86
2023/09/14 16:04:05;;;;;;;;;6.25;6.00;;;;;24.55;59.17;101390.16;5050544;28;46321;-86
2023/09/14 16:06:30;;;;;;;;;6.25;6.25;;;;;24.57;59.38;101380.00;5062148;28;47351;-86
2023/09/14 16:08:56;;;;;;;;;7.50;6.00;;;;;24.46;58.58;101371.78;5053486;28;45373;-86
2023/09/14 16:11:21;;;;;;;;;5.25;5.25;;;;;24.71;58.88;101408.88;5051895;28;45739;-86
2023/09/14 16:13:49;;;;;;;;;7.25;6.00;;;;;24.48;58.96;101377.13;5072667;28;45397;-87
2023/09/14 16:16:16;;;;;;;;;10.75;6.50;;;;;24.49;59.25;101374.25;5074142;28;47264;-86
2023/09/14 16:18:42;;;;;;;;;7.00;6.00;;;;;24.51;58.88;101372.28;5075131;28;45350;-86
2023/09/14 16:21:07;;;;;;;;;6.00;5.00;;;;;24.53;58.29;101373.00;5069659;28;45346;-87
2023/09/14 16:23:32;;;;;;;;;4.00;4.00;;;;;24.69;58.18;101402.69;5061860;28;45954;-86
2023/09/14 16:25:58;;;;;;;;;6.00;4.00;;;;;24.31;57.88;101332.09;5047401;28;48339;-87
2023/09/14 16:28:25;;;;;;;;;4.00;4.00;;;;;24.45;57.83;101358.25;5055419;28;46200;-87
2023/09/14 16:30:51;;;;;;;;;4.75;4.75;;;;;24.44;57.64;101359.25;5075640;28;45243;-87
2023/09/14 16:33:17;;;;;;;;;4.75;4.75;;;;;24.55;57.93;101372.91;5061627;27;45516;-87
2023/09/14 16:35:43;;;;;;;;;4.00;4.00;;;;;24.32;58.00;101339.28;5044187;28;47161;-86
2023/09/14 16:38:09;;;;;;;;;6.00;5.00;;;;;24.35;57.70;101348.06;5058799;28;45611;-86
2023/09/14 16:40:34;;;;;;;;;5.00;5.00;;;;;24.31;57.38;101341.16;5049939;28;45354;-86
2023/09/14 16:43:00;;;;;;;;;4.00;4.00;;;;;24.57;57.41;101379.09;5078976;28;45796;-86
2023/09/14 16:45:25;;;;;;;;;5.00;4.25;;;;;24.57;58.55;101382.72;5064110;28;47303;-86
2023/09/14 16:47:51;;;;;;;;;6.25;6.25;;;;;24.38;58.51;101352.44;5052835;28;44927;-87
2023/09/14 16:50:16;;;;;;;;;7.50;4.25;;;;;24.42;58.08;101351.19;5068231;28;45474;-86
2023/09/14 16:52:42;;;;;;;;;4.75;4.75;;;;;24.42;58.09;101346.59;5044286;28;45590;-87
2023/09/14 16:55:07;;;;;;;;;5.75;4.75;;;;;24.32;58.38;101329.22;5061885;28;46591;-87
2023/09/14 16:57:33;;;;;;;;;8.50;5.50;;;;;24.38;57.81;101336.91;5071559;28;45309;-86
2023/09/14 16:59:58;;;;;;;;;6.75;5.50;;;;;24.60;58.55;101370.69;5064615;28;45248;-86
2023/09/14 17:02:24;;;;;;;;;6.00;6.00;;;;;24.47;57.99;101359.84;5078428;28;45612;-88
2023/09/14 17:04:50;;;;;;;;;4.00;3.75;;;;;24.42;57.58;101345.72;5050162;28;46701;-87
2023/09/14 17:07:17;;;;;;;;;4.50;4.50;;;;;24.49;57.66;101362.47;5040873;28;45292;-87
2023/09/14 17:09:43;;;;;;;;;7.25;6.00;;;;;24.29;58.00;101337.69;5040016;28;45346;-88
2023/09/14 17:12:11;;;;;;;;;6.50;5.75;;;;;24.39;57.73;101351.41;5024744;28;45674;-87
2023/09/14 17:14:36;;;;;;;;;6.00;5.50;;;;;24.48;57.84;101366.19;5055777;28;45425;-85
2023/09/14 17:17:02;;;;;;;;;6.00;5.50;;;;;24.54;58.36;101379.31;5043472;28;45311;-85
2023/09/14 17:19:27;;;;;;;;;6.50;5.50;;;;;24.49;57.95;101368.81;5037595;28;45370;-85
2023/09/14 17:21:53;;;;;;;;;3.50;3.25;;;;;24.45;57.88;101356.38;5036314;28;45221;-85
2023/09/14 17:24:18;;;;;;;;;5.50;5.50;;;;;24.37;57.91;101346.13;5048160;28;48028;-84
2023/09/14 17:26:49;;;;;;;;;6.75;6.00;;;;;24.42;57.80;101356.63;5058593;28;45227;-85
2023/09/14 17:29:17;;;;;;;;;5.00;5.00;;;;;24.42;57.78;101356.63;5060722;28;45413;-85
2023/09/14 17:31:42;;;;;;;;;7.00;7.00;;;;;24.39;58.16;101351.41;5033799;28;45600;-84
2023/09/14 17:34:07;;;;;;;;;7.25;7.25;;;;;24.42;58.21;101360.25;5046673;28;46206;-84
2023/09/14 17:36:33;;;;;;;;;7.00;7.00;;;;;24.41;57.97;101360.38;5050998;28;53482;-84
2023/09/14 17:39:00;;;;;;;;;5.00;5.00;;;;;24.38;58.19;101355.16;5028525;28;45205;-84
2023/09/14 17:41:25;;;;;;;;;5.00;5.00;;;;;24.35;58.44;101352.69;5036123;28;45506;-85
2023/09/14 17:43:51;;;;;;;;;7.25;6.50;;;;;24.47;58.51;101372.63;5049068;28;45934;-84
2023/09/14 17:46:17;;;;;;;;;7.75;5.00;;;;;24.46;57.97;101374.50;5034334;28;52611;-85
2023/09/14 17:48:42;;;;;;;;;6.75;5.75;;;;;24.45;58.60;101371.91;5058521;28;45459;-84
2023/09/14 17:51:08;;;;;;;;;5.75;5.75;;;;;24.35;57.96;101356.25;5036098;28;45498;-86
2023/09/14 17:53:33;;;;;;;;;8.25;7.00;;;;;24.37;58.48;101354.31;5055447;28;45473;-86
2023/09/14 17:56:01;;;;;;;;;7.00;7.00;;;;;24.40;58.38;101366.81;5047404;28;45420;-86
2023/09/14 17:58:27;;;;;;;;;6.25;5.50;;;;;24.29;57.99;101348.59;5035432;28;45473;-87
2023/09/14 18:00:53;;;;;;;;;6.00;5.25;;;;;24.38;58.53;101369.66;5037668;28;45376;-86
2023/09/14 18:03:19;;;;;;;;;6.75;6.75;;;;;24.32;58.33;101363.84;5059278;28;45403;-86
2023/09/14 18:05:51;;;;;;;;;7.00;5.75;;;;;24.25;58.29;101354.41;5058976;28;45386;-86
2023/09/14 18:08:19;;;;;;;;;4.75;4.75;;;;;24.33;58.15;101369.16;5067824;28;45353;-86
2023/09/14 18:10:44;;;;;;;;;8.75;7.25;;;;;24.31;58.66;101371.16;5073427;28;45470;-85
2023/09/14 18:13:09;;;;;;;;;9.00;7.50;;;;;24.30;58.08;101366.69;5053818;28;47126;-85
2023/09/14 18:15:39;;;;;;;;;8.00;6.50;;;;;24.16;58.24;101350.56;5073279;28;45214;-85